Time;durP1;ratioP1;P1;durP2;ratioP2;P2;SDS_P1;SDS_P2;PMS_P1;PMS_P2;Temp;Humidity;BMP_temperature;BMP_pressure;BME280_temperature;BME280_humidity;BME280_pressure;Samples;Min_cycle;Max_cycle;Signal;HPM_P1;HPM_P2
2021/01/27 00:00:34;;;;;;;21.67;15.35;;;1.80;98.30;;;;;;5065640;23;20215;-79
2021/01/27 00:02:36;;;;;;;19.85;14.65;;;1.80;98.30;;;;;;5065877;23;20219;-79
2021/01/27 00:04:38;;;;;;;24.70;17.02;;;1.70;98.30;;;;;;5073248;23;20286;-79
2021/01/27 00:06:41;;;;;;;18.67;15.23;;;1.70;98.30;;;;;;5064949;23;20218;-78
2021/01/27 00:08:42;;;;;;;22.45;15.63;;;1.70;98.30;;;;;;5073053;23;20736;-79
2021/01/27 00:10:46;;;;;;;20.20;15.75;;;1.70;98.30;;;;;;5072310;23;20575;-78
2021/01/27 00:12:47;;;;;;;20.00;16.40;;;1.80;98.30;;;;;;5065444;23;20208;-79
2021/01/27 00:14:49;;;;;;;22.42;16.00;;;1.80;98.30;;;;;;5072913;23;20680;-79
2021/01/27 00:16:52;;;;;;;22.63;17.60;;;1.80;98.30;;;;;;5065163;23;20251;-79
2021/01/27 00:18:54;;;;;;;26.67;17.75;;;1.70;98.30;;;;;;5072938;23;20200;-79
2021/01/27 00:20:56;;;;;;;26.40;16.52;;;1.70;98.30;;;;;;5073426;23;20215;-79
2021/01/27 00:22:58;;;;;;;27.90;18.27;;;1.70;98.30;;;;;;5065461;23;21056;-79
2021/01/27 00:25:00;;;;;;;25.90;17.77;;;1.70;98.30;;;;;;5064847;23;20214;-79
2021/01/27 00:27:03;;;;;;;28.30;19.42;;;1.70;98.30;;;;;;5073807;23;20255;-79
2021/01/27 00:29:05;;;;;;;22.63;17.25;;;1.70;98.30;;;;;;5074502;23;20290;-79
2021/01/27 00:31:07;;;;;;;29.50;19.33;;;1.70;98.30;;;;;;5073189;23;20206;-79
2021/01/27 00:33:11;;;;;;;25.15;18.27;;;1.70;98.30;;;;;;5073501;23;20676;-79
2021/01/27 00:35:15;;;;;;;27.00;19.05;;;1.70;98.30;;;;;;5073642;23;20212;-79
2021/01/27 00:37:17;;;;;;;22.60;18.27;;;1.60;98.30;;;;;;5073185;23;20204;-79
2021/01/27 00:39:20;;;;;;;30.73;21.33;;;1.60;98.30;;;;;;5072758;23;20291;-79
2021/01/27 00:41:22;;;;;;;26.58;19.30;;;1.60;98.30;;;;;;5073228;23;20648;-79
2021/01/27 00:43:27;;;;;;;25.15;19.20;;;1.60;98.30;;;;;;5063937;23;20524;-79
2021/01/27 00:45:29;;;;;;;26.35;19.73;;;1.50;98.30;;;;;;5065508;23;20727;-79
2021/01/27 00:47:30;;;;;;;27.30;19.98;;;1.60;98.30;;;;;;5065813;23;20623;-80
2021/01/27 00:49:32;;;;;;;30.05;20.55;;;1.50;98.30;;;;;;5064763;23;20665;-79
2021/01/27 00:51:34;;;;;;;32.00;22.88;;;1.50;98.30;;;;;;5066984;23;20743;-80
2021/01/27 00:53:37;;;;;;;27.95;21.27;;;1.50;98.30;;;;;;5066062;23;20208;-81
2021/01/27 00:55:38;;;;;;;29.27;20.67;;;1.50;98.30;;;;;;5076120;23;20208;-79
2021/01/27 00:57:41;;;;;;;32.80;23.30;;;1.40;98.30;;;;;;5067511;23;20973;-79
2021/01/27 00:59:44;;;;;;;30.35;22.88;;;1.40;98.30;;;;;;5074410;23;20803;-80
2021/01/27 01:01:46;;;;;;;37.50;24.85;;;1.40;98.30;;;;;;5066969;23;20208;-79
2021/01/27 01:03:48;;;;;;;31.95;22.77;;;1.40;98.30;;;;;;5068036;23;20219;-79
2021/01/27 01:05:50;;;;;;;32.00;24.30;;;1.40;98.30;;;;;;5075877;23;20778;-79
2021/01/27 01:07:52;;;;;;;32.28;24.25;;;1.40;98.30;;;;;;5075975;23;20229;-80
2021/01/27 01:09:54;;;;;;;37.72;26.77;;;1.30;98.30;;;;;;5068105;23;20204;-79
2021/01/27 01:11:56;;;;;;;34.90;25.48;;;1.40;98.30;;;;;;5076298;23;20211;-79
2021/01/27 01:14:07;;;;;;;36.97;26.02;;;1.30;98.30;;;;;;5076362;23;20274;-79
2021/01/27 01:16:10;;;;;;;39.40;27.83;;;1.30;98.30;;;;;;5076088;23;20289;-80
2021/01/27 01:18:13;;;;;;;38.35;27.13;;;1.30;98.30;;;;;;5067763;23;20219;-80
2021/01/27 01:20:15;;;;;;;39.63;27.85;;;1.30;98.30;;;;;;5067405;23;20253;-80
2021/01/27 01:22:17;;;;;;;40.10;27.15;;;1.30;98.30;;;;;;5067976;23;20711;-79
2021/01/27 01:24:19;;;;;;;37.45;27.05;;;1.30;98.30;;;;;;5068090;23;20208;-80
2021/01/27 01:26:22;;;;;;;39.80;26.67;;;1.30;98.30;;;;;;5068001;23;20212;-80
2021/01/27 01:28:24;;;;;;;37.35;27.65;;;1.30;98.30;;;;;;5067549;23;20214;-80
2021/01/27 01:30:28;;;;;;;40.58;27.20;;;1.30;98.30;;;;;;5075669;23;20212;-79
2021/01/27 01:32:31;;;;;;;37.42;28.98;;;1.30;98.30;;;;;;5067742;23;20232;-80
2021/01/27 01:34:33;;;;;;;46.17;30.30;;;1.30;98.30;;;;;;5067190;23;20596;-79
2021/01/27 01:36:35;;;;;;;39.55;29.30;;;1.30;98.30;;;;;;5075680;23;20238;-79
2021/01/27 01:38:38;;;;;;;43.03;30.33;;;1.30;98.30;;;;;;5067526;23;20215;-79
2021/01/27 01:40:42;;;;;;;39.88;29.75;;;1.30;98.30;;;;;;5075720;23;20247;-79
2021/01/27 01:42:44;;;;;;;42.45;30.95;;;1.40;98.30;;;;;;5075863;23;20220;-79
2021/01/27 01:44:46;;;;;;;39.42;28.40;;;1.40;98.30;;;;;;5067380;23;20684;-79
2021/01/27 01:46:48;;;;;;;39.85;29.42;;;1.40;98.30;;;;;;5067656;23;20266;-80
2021/01/27 01:48:54;;;;;;;42.05;29.88;;;1.40;98.30;;;;;;5067474;23;20210;-80
2021/01/27 01:51:00;;;;;;;46.15;31.75;;;1.40;98.30;;;;;;5067538;23;20204;-79
2021/01/27 01:53:02;;;;;;;43.38;29.73;;;1.50;98.30;;;;;;5067428;23;20587;-79
2021/01/27 01:55:05;;;;;;;43.25;30.58;;;1.50;98.30;;;;;;5067433;23;20595;-79
2021/01/27 01:57:11;;;;;;;43.22;31.40;;;1.50;98.30;;;;;;5067628;23;20212;-79
2021/01/27 01:59:15;;;;;;;43.38;30.73;;;1.50;98.30;;;;;;5067388;23;20291;-78
2021/01/27 02:01:17;;;;;;;46.42;31.63;;;1.50;98.30;;;;;;5067118;23;20214;-79
2021/01/27 02:03:20;;;;;;;37.67;30.70;;;1.60;98.30;;;;;;5075651;23;20255;-79
2021/01/27 02:05:25;;;;;;;40.38;31.08;;;1.60;98.30;;;;;;5067820;23;20216;-79
2021/01/27 02:07:28;;;;;;;45.92;32.38;;;1.60;98.30;;;;;;5067679;23;20232;-79
2021/01/27 02:09:30;;;;;;;39.63;31.85;;;1.60;98.30;;;;;;5067416;23;20279;-79
2021/01/27 02:11:50;;;;;;;37.38;28.77;;;1.60;98.30;;;;;;5075799;23;20200;-79
2021/01/27 02:14:16;;;;;;;39.08;27.90;;;1.60;98.30;;;;;;5066551;23;20216;-79
2021/01/27 02:16:29;;;;;;;44.63;30.98;;;1.70;98.30;;;;;;5067418;23;20231;-79
2021/01/27 02:18:45;;;;;;;52.83;31.67;;;1.70;98.30;;;;;;5067717;23;20608;-79
2021/01/27 02:21:21;;;;;;;39.83;31.05;;;1.70;98.30;;;;;;5075762;23;20200;-80
2021/01/27 02:24:01;;;;;;;39.63;30.85;;;1.70;98.30;;;;;;5075636;23;20239;-79
2021/01/27 02:26:39;;;;;;;43.10;30.23;;;1.80;98.30;;;;;;5075180;23;20286;-80
2021/01/27 02:29:17;;;;;;;49.00;31.08;;;1.70;98.30;;;;;;5075741;23;20211;-80
2021/01/27 02:31:27;;;;;;;40.97;30.45;;;1.70;98.30;;;;;;5042043;23;20214;-79
2021/01/27 02:34:02;;;;;;;38.05;29.33;;;1.80;98.30;;;;;;5067737;23;20283;-79
2021/01/27 02:36:11;;;;;;;44.83;31.30;;;1.80;98.30;;;;;;5076030;23;20204;-80
2021/01/27 02:38:21;;;;;;;40.92;30.88;;;1.80;98.30;;;;;;5067421;23;20208;-80
2021/01/27 02:40:27;;;;;;;43.83;31.25;;;1.80;98.30;;;;;;5066833;23;20211;-80
2021/01/27 02:42:34;;;;;;;43.42;30.65;;;1.80;98.30;;;;;;5067336;23;20283;-80
2021/01/27 02:44:42;;;;;;;39.47;29.98;;;1.80;98.30;;;;;;5067579;23;20204;-79
2021/01/27 02:46:51;;;;;;;48.58;31.38;;;1.70;98.30;;;;;;5075352;23;20246;-80
2021/01/27 02:49:00;;;;;;;37.85;28.02;;;1.70;98.30;;;;;;5066978;23;20215;-80
2021/01/27 02:51:08;;;;;;;40.45;30.38;;;1.70;98.30;;;;;;5067638;23;20291;-79
2021/01/27 02:53:17;;;;;;;41.53;31.50;;;1.70;98.30;;;;;;5074992;23;20204;-80
2021/01/27 02:55:24;;;;;;;39.08;28.38;;;1.70;98.30;;;;;;5066997;23;20204;-80
2021/01/27 02:57:31;;;;;;;43.65;30.98;;;1.70;98.30;;;;;;5067255;23;20271;-80
2021/01/27 02:59:39;;;;;;;46.63;30.27;;;1.70;98.30;;;;;;5066582;23;20235;-80
2021/01/27 03:01:46;;;;;;;48.63;32.40;;;1.70;98.30;;;;;;5067406;23;20222;-79
2021/01/27 03:03:54;;;;;;;50.13;32.00;;;1.70;98.30;;;;;;5075276;23;20258;-79
2021/01/27 03:05:59;;;;;;;42.33;30.70;;;1.60;98.30;;;;;;5075307;23;20231;-79
2021/01/27 03:08:08;;;;;;;42.55;31.60;;;1.60;98.30;;;;;;5066907;23;20208;-79
2021/01/27 03:10:14;;;;;;;43.42;30.05;;;1.60;98.30;;;;;;5067315;23;20290;-80
2021/01/27 03:12:16;;;;;;;44.72;31.23;;;1.70;98.30;;;;;;5067013;23;20750;-79
2021/01/27 03:14:18;;;;;;;52.33;33.20;;;1.70;98.30;;;;;;5067255;23;20215;-79
2021/01/27 03:16:29;;;;;;;42.20;30.23;;;1.70;98.30;;;;;;5067382;23;20759;-80
2021/01/27 03:18:33;;;;;;;44.63;32.85;;;1.70;98.30;;;;;;5075017;23;20204;-80
2021/01/27 03:20:39;;;;;;;41.17;30.20;;;1.70;98.30;;;;;;5066426;23;20276;-80
2021/01/27 03:22:46;;;;;;;39.65;29.90;;;1.70;98.30;;;;;;5066850;23;20293;-79
2021/01/27 03:24:54;;;;;;;45.35;30.80;;;1.60;98.30;;;;;;5066808;23;20291;-80
2021/01/27 03:26:59;;;;;;;43.20;30.92;;;1.60;98.30;;;;;;5067211;23;20746;-79
2021/01/27 03:29:07;;;;;;;45.00;31.20;;;1.70;98.30;;;;;;5066925;23;20287;-80
2021/01/27 03:31:10;;;;;;;43.10;31.90;;;1.60;98.30;;;;;;5067229;23;20592;-80
2021/01/27 03:33:16;;;;;;;41.97;30.70;;;1.60;98.30;;;;;;5074859;23;20200;-80
2021/01/27 03:35:29;;;;;;;42.97;31.27;;;1.60;98.30;;;;;;5066697;23;20554;-80
2021/01/27 03:37:37;;;;;;;44.55;29.85;;;1.60;98.30;;;;;;5067088;23;20212;-80
2021/01/27 03:39:43;;;;;;;41.97;31.48;;;1.60;98.30;;;;;;5067028;23;20215;-81
2021/01/27 03:41:51;;;;;;;46.70;32.00;;;1.60;98.30;;;;;;5066594;23;20209;-79
2021/01/27 03:44:01;;;;;;;48.65;32.42;;;1.60;98.30;;;;;;5066085;23;20203;-80
2021/01/27 03:46:13;;;;;;;43.13;31.20;;;1.60;98.30;;;;;;5073844;23;20204;-79
2021/01/27 03:48:21;;;;;;;52.53;33.95;;;1.60;98.30;;;;;;5065805;23;20215;-79
2021/01/27 03:50:26;;;;;;;45.58;31.20;;;1.60;98.30;;;;;;5069874;23;20243;-80
2021/01/27 03:52:35;;;;;;;46.35;30.90;;;1.60;98.30;;;;;;5073324;23;20208;-80
2021/01/27 03:54:45;;;;;;;41.92;30.70;;;1.60;98.30;;;;;;5081087;23;20239;-80
2021/01/27 03:56:53;;;;;;;44.97;32.60;;;1.60;98.30;;;;;;5067722;23;20208;-80
2021/01/27 03:58:55;;;;;;;44.85;31.10;;;1.60;98.30;;;;;;5065577;23;20266;-80
2021/01/27 04:01:02;;;;;;;44.55;31.17;;;1.60;98.30;;;;;;5066418;23;20212;-80
2021/01/27 04:03:08;;;;;;;46.50;30.90;;;1.60;98.30;;;;;;5067502;23;20544;-80
2021/01/27 04:05:11;;;;;;;49.70;33.17;;;1.60;98.30;;;;;;5074863;23;20219;-80
2021/01/27 04:07:13;;;;;;;48.47;31.65;;;1.60;98.30;;;;;;5075045;23;20200;-80
2021/01/27 04:09:15;;;;;;;43.58;32.45;;;1.60;98.30;;;;;;5075181;23;20224;-80
2021/01/27 04:11:17;;;;;;;52.78;33.03;;;1.60;98.30;;;;;;5074864;23;20320;-79
2021/01/27 04:13:21;;;;;;;46.40;34.30;;;1.60;98.30;;;;;;5067181;23;20205;-80
2021/01/27 04:15:23;;;;;;;43.28;31.60;;;1.60;98.30;;;;;;5075014;23;20226;-79
2021/01/27 04:17:30;;;;;;;47.28;31.23;;;1.60;98.30;;;;;;5066724;23;20212;-79
2021/01/27 04:19:32;;;;;;;51.65;31.98;;;1.60;98.30;;;;;;5066271;23;20207;-79
2021/01/27 04:21:34;;;;;;;51.22;33.25;;;1.60;98.30;;;;;;5067135;23;20555;-79
2021/01/27 04:23:37;;;;;;;50.95;32.65;;;1.60;98.30;;;;;;5067045;23;20208;-79
2021/01/27 04:25:39;;;;;;;51.53;32.72;;;1.60;98.30;;;;;;5067588;23;20208;-80
2021/01/27 04:27:41;;;;;;;53.92;33.88;;;1.60;98.30;;;;;;5076186;23;20283;-79
2021/01/27 04:29:44;;;;;;;53.20;33.10;;;1.60;98.30;;;;;;5068339;23;20212;-79
2021/01/27 04:31:46;;;;;;;51.88;34.67;;;1.60;98.30;;;;;;5068973;23;20319;-79
2021/01/27 04:33:49;;;;;;;48.88;32.72;;;1.60;98.30;;;;;;5068216;23;20311;-79
2021/01/27 04:35:50;;;;;;;49.25;34.22;;;1.60;98.30;;;;;;5075931;23;20554;-79
2021/01/27 04:37:53;;;;;;;51.15;34.63;;;1.70;98.30;;;;;;5068386;23;20208;-79
2021/01/27 04:39:55;;;;;;;59.35;36.20;;;1.70;98.30;;;;;;5068019;23;20215;-79
2021/01/27 04:41:57;;;;;;;54.75;36.45;;;1.70;98.30;;;;;;5075878;23;20243;-79
2021/01/27 04:43:59;;;;;;;111.32;65.28;;;1.70;98.30;;;;;;5076121;23;20239;-79
2021/01/27 04:46:06;;;;;;;49.75;35.35;;;1.70;98.30;;;;;;5076051;23;20212;-78
2021/01/27 04:48:12;;;;;;;73.68;39.90;;;1.60;98.30;;;;;;5067833;23;20211;-79
2021/01/27 04:50:25;;;;;;;54.35;34.45;;;1.80;98.30;;;;;;5067920;23;20714;-79
2021/01/27 04:53:00;;;;;;;54.53;36.95;;;1.70;98.30;;;;;;5068114;23;20212;-80
2021/01/27 04:55:14;;;;;;;51.42;35.72;;;1.70;98.30;;;;;;5063432;23;20281;-80
2021/01/27 04:57:41;;;;;;;65.25;39.08;;;1.70;98.30;;;;;;5075968;23;20286;-80
2021/01/27 04:59:57;;;;;;;52.25;36.85;;;1.70;98.30;;;;;;5076021;23;20208;-79
2021/01/27 05:02:20;;;;;;;60.03;39.45;;;1.80;98.30;;;;;;5068049;23;20678;-80
2021/01/27 05:04:37;;;;;;;56.90;39.10;;;1.70;98.30;;;;;;5068382;23;20218;-79
2021/01/27 05:06:42;;;;;;;52.05;36.95;;;1.80;98.30;;;;;;5068086;23;20690;-80
2021/01/27 05:08:51;;;;;;;61.90;37.78;;;1.80;98.30;;;;;;5068495;23;20219;-79
2021/01/27 05:10:55;;;;;;;53.33;35.20;;;1.80;98.30;;;;;;5068296;23;20204;-79
2021/01/27 05:13:02;;;;;;;59.60;36.58;;;1.80;98.30;;;;;;5068215;23;20610;-79
2021/01/27 05:15:06;;;;;;;66.05;40.20;;;1.80;98.30;;;;;;5075794;23;20211;-80
2021/01/27 05:17:12;;;;;;;61.60;40.38;;;1.80;98.30;;;;;;5076199;23;20208;-80
2021/01/27 05:19:14;;;;;;;55.05;37.85;;;1.80;98.30;;;;;;5075586;23;20203;-79
2021/01/27 05:21:24;;;;;;;57.20;38.17;;;1.80;98.30;;;;;;5068253;23;20801;-79
2021/01/27 05:23:26;;;;;;;62.13;37.88;;;1.80;98.30;;;;;;5076068;23;20326;-79
2021/01/27 05:25:36;;;;;;;60.53;37.88;;;1.90;98.30;;;;;;5068275;23;20584;-79
2021/01/27 05:27:39;;;;;;;58.35;37.85;;;1.80;98.30;;;;;;5076028;23;20200;-79
2021/01/27 05:29:43;;;;;;;58.83;36.63;;;1.80;98.30;;;;;;5067557;23;20239;-79
2021/01/27 05:32:04;;;;;;;56.20;36.35;;;1.80;98.30;;;;;;5075941;23;20671;-79
2021/01/27 05:34:07;;;;;;;60.45;39.05;;;1.90;98.30;;;;;;5075468;23;20212;-79
2021/01/27 05:36:11;;;;;;;57.60;36.50;;;1.90;98.30;;;;;;5068019;23;20219;-80
2021/01/27 05:38:34;;;;;;;68.03;40.85;;;1.90;98.30;;;;;;5067315;23;20271;-79
2021/01/27 05:40:37;;;;;;;57.83;38.17;;;2.00;98.30;;;;;;5060994;23;20412;-79
2021/01/27 05:42:39;;;;;;;63.33;39.45;;;2.00;98.30;;;;;;5067648;23;20208;-79
2021/01/27 05:44:41;;;;;;;65.60;41.85;;;2.00;98.30;;;;;;5067781;23;20244;-79
2021/01/27 05:46:43;;;;;;;61.30;39.33;;;2.00;98.30;;;;;;5067425;23;20204;-80
2021/01/27 05:48:49;;;;;;;64.95;39.50;;;2.00;98.30;;;;;;5075577;23;20208;-80
2021/01/27 05:50:53;;;;;;;61.03;40.35;;;2.00;98.30;;;;;;5076022;23;20196;-79
2021/01/27 05:52:55;;;;;;;65.22;39.35;;;2.10;98.30;;;;;;5067418;23;20212;-79
2021/01/27 05:55:07;;;;;;;73.78;37.55;;;2.10;98.30;;;;;;5075460;23;20255;-80
2021/01/27 05:57:16;;;;;;;64.53;38.20;;;2.00;98.30;;;;;;5075473;23;20736;-79
2021/01/27 05:59:21;;;;;;;61.13;38.42;;;2.10;98.30;;;;;;5067155;23;20259;-80
2021/01/27 06:01:42;;;;;;;62.15;37.95;;;2.10;98.30;;;;;;5067024;23;20243;-79
2021/01/27 06:04:01;;;;;;;66.65;38.80;;;2.10;98.30;;;;;;5067478;23;20761;-79
2021/01/27 06:06:11;;;;;;;67.18;40.65;;;2.10;98.30;;;;;;5065310;23;20283;-79
2021/01/27 06:08:15;;;;;;;64.72;42.22;;;2.10;98.30;;;;;;5067259;23;20235;-80
2021/01/27 06:10:31;;;;;;;65.95;41.95;;;2.10;98.30;;;;;;5075039;23;20728;-79
2021/01/27 06:12:33;;;;;;;67.90;42.50;;;2.10;98.30;;;;;;5075457;23;20611;-79
2021/01/27 06:14:35;;;;;;;58.67;37.10;;;2.10;98.30;;;;;;5067091;23;20684;-79
2021/01/27 06:16:43;;;;;;;60.72;37.83;;;2.10;98.30;;;;;;5067124;23;20205;-78
2021/01/27 06:18:45;;;;;;;63.55;37.90;;;2.20;98.30;;;;;;5067364;23;20207;-78
2021/01/27 06:20:49;;;;;;;57.70;39.45;;;2.10;98.30;;;;;;5067426;23;20216;-79
2021/01/27 06:23:32;;;;;;;63.50;38.97;;;2.10;98.30;;;;;;5067314;23;20668;-79
2021/01/27 06:25:48;;;;;;;59.42;40.17;;;2.10;98.30;;;;;;5066752;23;20235;-78
2021/01/27 06:28:05;;;;;;;66.93;42.25;;;2.10;98.30;;;;;;5074887;23;20196;-78
2021/01/27 06:30:40;;;;;;;64.07;39.00;;;2.10;98.30;;;;;;5074501;23;20660;-78
2021/01/27 06:33:10;;;;;;;67.35;41.05;;;2.10;98.30;;;;;;5067463;23;20727;-78
2021/01/27 06:35:24;;;;;;;57.92;38.97;;;2.10;98.30;;;;;;5074981;23;20263;-78
2021/01/27 06:37:49;;;;;;;62.53;40.80;;;2.10;98.30;;;;;;5067384;23;20226;-81
2021/01/27 06:40:18;;;;;;;63.58;39.83;;;2.00;98.30;;;;;;5066669;23;20301;-79
2021/01/27 06:42:39;;;;;;;65.20;40.67;;;2.00;98.30;;;;;;5066466;23;20216;-79
2021/01/27 06:44:53;;;;;;;68.80;41.55;;;2.00;98.30;;;;;;5075344;23;20885;-79
2021/01/27 06:47:13;;;;;;;59.55;39.63;;;2.00;98.30;;;;;;5067142;23;20212;-78
2021/01/27 06:49:41;;;;;;;64.90;41.15;;;2.00;98.30;;;;;;5066392;23;20299;-79
2021/01/27 06:51:57;;;;;;;64.35;41.10;;;2.10;98.30;;;;;;5074799;23;20200;-79
2021/01/27 06:54:10;;;;;;;61.10;41.38;;;2.00;98.30;;;;;;5072755;23;20235;-80
2021/01/27 06:56:51;;;;;;;63.05;41.67;;;2.10;98.30;;;;;;5074998;23;20276;-80
2021/01/27 06:59:29;;;;;;;75.88;42.75;;;2.10;98.30;;;;;;5075653;23;20210;-80
2021/01/27 07:01:58;;;;;;;58.10;39.58;;;2.10;98.30;;;;;;5074607;23;20212;-79
2021/01/27 07:04:25;;;;;;;55.67;39.28;;;2.10;98.30;;;;;;5074720;23;20246;-80
2021/01/27 07:07:07;;;;;;;60.17;40.08;;;2.10;98.30;;;;;;5082571;23;20228;-80
2021/01/27 07:09:48;;;;;;;60.53;41.05;;;2.10;98.30;;;;;;5076162;23;20214;-80
2021/01/27 07:12:03;;;;;;;68.53;39.75;;;2.10;98.30;;;;;;5084383;23;20208;-80
2021/01/27 07:14:26;;;;;;;64.90;39.97;;;2.10;98.30;;;;;;5083269;23;20896;-80
2021/01/27 07:16:49;;;;;;;60.97;40.20;;;2.10;98.30;;;;;;5076349;23;20208;-80
2021/01/27 07:19:27;;;;;;;53.47;38.15;;;2.10;98.30;;;;;;5076281;23;20208;-80
2021/01/27 07:21:33;;;;;;;61.92;38.33;;;2.10;98.30;;;;;;5069969;23;20247;-80
2021/01/27 07:23:44;;;;;;;57.60;38.35;;;2.00;98.30;;;;;;5085882;23;20204;-80
2021/01/27 07:25:56;;;;;;;61.95;39.72;;;2.00;98.30;;;;;;5078085;23;20214;-80
2021/01/27 07:28:06;;;;;;;54.25;37.80;;;2.00;98.30;;;;;;5088084;23;20205;-80
2021/01/27 07:30:12;;;;;;;70.53;41.40;;;2.10;98.30;;;;;;5072815;23;20211;-79
2021/01/27 07:35:22;;;;;;;64.60;37.55;;;2.10;98.30;;;;;;5074216;23;20243;-80
2021/01/27 07:37:29;;;;;;;56.33;37.70;;;2.00;98.30;;;;;;5083243;23;20232;-81
2021/01/27 07:39:41;;;;;;;53.97;36.88;;;2.10;98.30;;;;;;5073721;23;20234;-81
2021/01/27 07:41:53;;;;;;;61.72;38.42;;;2.00;98.30;;;;;;5083428;23;20206;-80
2021/01/27 07:44:02;;;;;;;65.88;40.42;;;2.00;98.30;;;;;;5083707;23;20263;-81
2021/01/27 07:46:18;;;;;;;54.72;36.67;;;2.00;98.30;;;;;;5076134;23;20293;-82
2021/01/27 07:48:41;;;;;;;60.15;37.97;;;2.10;98.30;;;;;;5068139;23;20225;-79
2021/01/27 07:50:49;;;;;;;52.58;35.38;;;2.10;98.30;;;;;;5081302;23;20263;-79
2021/01/27 07:53:01;;;;;;;53.70;36.80;;;2.10;98.30;;;;;;5084162;23;20208;-79
2021/01/27 07:55:15;;;;;;;60.97;36.28;;;2.10;98.30;;;;;;5074277;23;20211;-79
2021/01/27 07:57:31;;;;;;;54.28;36.85;;;2.10;98.30;;;;;;5084883;23;20204;-79
2021/01/27 07:59:47;;;;;;;52.25;34.53;;;2.10;98.30;;;;;;5051866;23;20509;-79
2021/01/27 08:01:54;;;;;;;58.92;35.97;;;2.10;98.30;;;;;;5059487;23;20232;-79
2021/01/27 08:04:04;;;;;;;51.95;35.20;;;2.10;98.30;;;;;;5060728;23;20206;-79
2021/01/27 08:06:09;;;;;;;52.92;36.17;;;2.10;98.30;;;;;;5060545;23;20204;-79
2021/01/27 08:08:14;;;;;;;48.58;34.63;;;2.20;98.30;;;;;;5059824;23;20772;-82
2021/01/27 08:10:25;;;;;;;53.53;31.95;;;2.10;98.30;;;;;;5051149;23;20678;-82
2021/01/27 08:12:30;;;;;;;54.45;34.15;;;2.10;98.30;;;;;;5052430;23;20408;-79
2021/01/27 08:14:58;;;;;;;55.20;35.15;;;2.20;98.30;;;;;;5060659;23;20220;-79
2021/01/27 08:17:35;;;;;;;53.88;35.90;;;2.20;98.30;;;;;;5053260;23;20219;-79
2021/01/27 08:19:37;;;;;;;45.92;33.00;;;2.20;98.30;;;;;;5059761;23;20228;-79
2021/01/27 08:21:51;;;;;;;48.78;34.03;;;2.10;98.30;;;;;;5060364;23;20284;-79
2021/01/27 08:23:54;;;;;;;47.60;33.63;;;2.10;98.30;;;;;;5051909;23;20209;-79
2021/01/27 08:25:58;;;;;;;44.30;33.15;;;2.20;98.30;;;;;;5059989;23;20226;-82
2021/01/27 08:28:39;;;;;;;48.20;30.80;;;2.10;98.30;;;;;;5050344;23;20211;-82
2021/01/27 08:30:42;;;;;;;41.25;31.20;;;2.30;98.30;;;;;;5057176;23;20291;-82
2021/01/27 08:32:46;;;;;;;40.85;31.20;;;2.30;98.30;;;;;;5050062;23;20537;-82
2021/01/27 08:34:50;;;;;;;43.47;31.02;;;2.50;98.30;;;;;;5059797;23;20209;-82
2021/01/27 08:37:03;;;;;;;41.47;32.50;;;2.60;98.30;;;;;;5059664;23;20238;-82
2021/01/27 08:39:11;;;;;;;40.35;28.90;;;2.70;98.30;;;;;;5057680;23;20256;-82
2021/01/27 08:41:45;;;;;;;46.33;29.33;;;2.80;98.30;;;;;;5056596;23;20232;-82
2021/01/27 08:43:57;;;;;;;42.42;27.17;;;2.90;98.30;;;;;;5057642;23;20212;-82
2021/01/27 08:46:27;;;;;;;39.38;28.70;;;2.90;98.30;;;;;;5049443;23;20581;-82
2021/01/27 08:48:51;;;;;;;39.28;28.52;;;3.00;98.30;;;;;;5056421;23;20219;-82
2021/01/27 08:50:53;;;;;;;36.10;25.98;;;3.10;98.30;;;;;;5049078;23;20701;-81
2021/01/27 08:53:06;;;;;;;32.75;21.95;;;3.10;98.30;;;;;;5057715;23;20544;-82
2021/01/27 08:55:38;;;;;;;39.65;28.85;;;3.30;98.30;;;;;;5053065;23;20211;-82
2021/01/27 08:58:18;;;;;;;38.55;27.00;;;3.40;98.30;;;;;;5046726;23;20753;-82
2021/01/27 09:00:44;;;;;;;34.38;22.00;;;3.50;98.30;;;;;;5057131;23;20212;-82
2021/01/27 09:02:51;;;;;;;32.80;24.80;;;3.60;98.30;;;;;;5051495;23;20233;-79
2021/01/27 09:04:57;;;;;;;32.97;23.88;;;3.70;98.30;;;;;;5050189;23;20205;-80
2021/01/27 09:07:05;;;;;;;32.78;23.42;;;3.80;98.30;;;;;;5042301;23;20777;-80
2021/01/27 09:09:23;;;;;;;32.50;21.92;;;3.90;98.30;;;;;;5050624;23;20702;-79
2021/01/27 09:11:26;;;;;;;32.78;20.33;;;4.00;98.30;;;;;;5051832;23;20215;-79
2021/01/27 09:13:33;;;;;;;33.38;20.98;;;4.10;98.30;;;;;;5044867;23;20283;-79
2021/01/27 09:15:36;;;;;;;29.42;20.10;;;4.20;98.30;;;;;;5053001;23;20208;-79
2021/01/27 09:17:46;;;;;;;25.52;20.92;;;4.10;98.30;;;;;;5045322;23;20204;-79
2021/01/27 09:19:55;;;;;;;28.27;19.92;;;4.10;98.30;;;;;;5046030;23;20213;-79
2021/01/27 09:22:09;;;;;;;27.83;17.55;;;4.30;98.30;;;;;;5054965;23;20233;-79
2021/01/27 09:24:23;;;;;;;29.90;20.10;;;4.30;98.30;;;;;;5054771;23;20204;-79
2021/01/27 09:26:38;;;;;;;23.80;18.75;;;4.40;98.30;;;;;;5048084;23;20213;-80
2021/01/27 09:28:40;;;;;;;28.88;20.77;;;4.50;98.30;;;;;;5047670;23;20249;-80
2021/01/27 09:30:42;;;;;;;26.13;18.83;;;4.50;98.30;;;;;;5048602;23;20209;-79
2021/01/27 09:32:46;;;;;;;26.58;16.15;;;4.50;98.30;;;;;;5050729;23;20532;-81
2021/01/27 09:34:50;;;;;;;24.23;16.20;;;4.60;98.30;;;;;;5055726;23;20205;-81
2021/01/27 09:37:04;;;;;;;23.48;15.80;;;4.50;98.30;;;;;;5055363;23;20205;-81
2021/01/27 09:39:11;;;;;;;22.20;16.23;;;4.40;98.30;;;;;;5047182;23;20236;-81
2021/01/27 09:41:19;;;;;;;25.15;16.77;;;4.50;98.30;;;;;;5055144;23;20209;-81
2021/01/27 09:43:22;;;;;;;18.25;12.02;;;4.50;98.30;;;;;;5050218;23;20204;-81
2021/01/27 09:45:30;;;;;;;24.93;14.93;;;4.70;98.30;;;;;;5049715;23;20285;-81
2021/01/27 09:47:33;;;;;;;20.77;13.57;;;4.70;98.30;;;;;;5058716;23;20535;-81
2021/01/27 09:49:39;;;;;;;17.90;12.70;;;4.90;98.30;;;;;;5057809;23;20217;-82
2021/01/27 09:51:50;;;;;;;21.67;14.70;;;4.90;98.30;;;;;;5054124;23;20491;-81
2021/01/27 09:53:56;;;;;;;18.83;14.13;;;4.70;98.30;;;;;;5063458;23;20232;-81
2021/01/27 09:55:58;;;;;;;20.67;13.60;;;4.80;98.30;;;;;;5062512;23;20512;-81
2021/01/27 09:58:05;;;;;;;20.77;13.35;;;5.00;98.30;;;;;;5063241;23;20464;-81
2021/01/27 10:00:14;;;;;;;18.92;13.27;;;5.10;98.30;;;;;;5062695;23;20205;-79
2021/01/27 10:02:26;;;;;;;18.87;12.53;;;5.20;98.30;;;;;;5061813;23;20206;-79
2021/01/27 10:04:34;;;;;;;20.13;14.50;;;5.00;98.30;;;;;;5054775;23;20489;-80
2021/01/27 10:06:39;;;;;;;17.73;12.90;;;4.90;98.30;;;;;;5062123;23;20477;-81
2021/01/27 10:08:43;;;;;;;17.67;11.70;;;4.80;98.30;;;;;;5062525;23;20481;-81
2021/01/27 10:11:05;;;;;;;15.00;10.97;;;4.80;98.30;;;;;;5055000;23;20209;-82
2021/01/27 10:13:10;;;;;;;19.80;12.30;;;4.90;98.30;;;;;;5055356;23;20490;-80
2021/01/27 10:15:27;;;;;;;14.20;10.87;;;5.00;98.30;;;;;;5063876;23;20448;-80
2021/01/27 10:17:31;;;;;;;18.00;11.50;;;5.20;98.30;;;;;;5063546;23;20456;-79
2021/01/27 10:19:36;;;;;;;17.90;12.67;;;5.10;98.30;;;;;;5063033;23;20878;-81
2021/01/27 10:21:44;;;;;;;18.13;11.70;;;5.00;98.30;;;;;;5056155;23;20472;-82
2021/01/27 10:23:48;;;;;;;21.77;12.33;;;4.80;98.30;;;;;;5064774;23;20484;-81
2021/01/27 10:25:50;;;;;;;16.03;12.30;;;4.60;98.30;;;;;;5053313;23;20464;-82
2021/01/27 10:28:04;;;;;;;16.92;12.25;;;4.70;98.30;;;;;;5052330;23;20474;-80
2021/01/27 10:30:33;;;;;;;16.88;12.10;;;4.90;98.30;;;;;;5053777;23;20214;-80
2021/01/27 10:32:39;;;;;;;16.77;11.93;;;4.90;98.30;;;;;;5060336;23;20210;-79
2021/01/27 10:34:44;;;;;;;15.55;10.15;;;4.80;98.30;;;;;;5052868;23;20487;-79
2021/01/27 10:36:46;;;;;;;15.93;10.67;;;4.70;98.30;;;;;;5052278;23;20597;-79
2021/01/27 10:39:08;;;;;;;16.33;11.90;;;4.60;98.30;;;;;;5053132;23;20461;-79
2021/01/27 10:41:21;;;;;;;16.37;10.90;;;4.60;98.30;;;;;;5052683;23;20457;-81
2021/01/27 10:43:28;;;;;;;15.40;11.43;;;4.50;98.30;;;;;;5061566;23;20531;-79
2021/01/27 10:45:33;;;;;;;14.60;10.63;;;4.50;98.30;;;;;;5052966;23;21092;-80
2021/01/27 10:47:35;;;;;;;16.38;11.98;;;4.50;98.30;;;;;;5062107;23;20471;-80
2021/01/27 10:49:40;;;;;;;12.45;9.85;;;4.60;98.30;;;;;;5043778;23;20249;-79
2021/01/27 10:51:42;;;;;;;13.87;10.40;;;4.70;98.30;;;;;;5052400;23;20201;-80
2021/01/27 10:53:45;;;;;;;14.83;10.43;;;4.70;98.30;;;;;;5051467;23;20458;-80
2021/01/27 10:55:53;;;;;;;15.27;10.13;;;4.70;98.30;;;;;;5052656;23;20461;-80
2021/01/27 10:58:03;;;;;;;14.37;10.07;;;4.50;98.30;;;;;;5043959;23;20456;-80
2021/01/27 11:00:07;;;;;;;13.17;10.07;;;4.60;98.30;;;;;;5052573;23;20461;-80
2021/01/27 11:02:08;;;;;;;18.23;11.00;;;4.70;98.30;;;;;;5044014;23;20536;-79
2021/01/27 11:04:11;;;;;;;13.50;9.93;;;4.60;98.30;;;;;;5044220;23;20533;-80
2021/01/27 11:06:13;;;;;;;14.63;10.10;;;4.70;98.30;;;;;;5044090;23;20457;-80